sensor_id;sensor_type;location;lat;lon;timestamp;temperature;humidity
52435;DHT22;38354;52.892;6.148;2023-06-14T03:02:40;15.40;99.90
52435;DHT22;38354;52.892;6.148;2023-06-14T03:05:08;15.40;99.90
52435;DHT22;38354;52.892;6.148;2023-06-14T03:07:33;15.40;99.90
52435;DHT22;38354;52.892;6.148;2023-06-14T03:09:59;15.40;99.90
52435;DHT22;38354;52.892;6.148;2023-06-14T03:12:25;15.40;99.90
52435;DHT22;38354;52.892;6.148;2023-06-14T03:14:51;15.30;99.90
52435;DHT22;38354;52.892;6.148;2023-06-14T03:17:18;15.30;99.90
52435;DHT22;38354;52.892;6.148;2023-06-14T03:19:45;15.30;99.90
52435;DHT22;38354;52.892;6.148;2023-06-14T03:22:10;15.30;99.90
52435;DHT22;38354;52.892;6.148;2023-06-14T03:24:37;15.30;99.90
52435;DHT22;38354;52.892;6.148;2023-06-14T03:27:03;15.20;99.90
52435;DHT22;38354;52.892;6.148;2023-06-14T03:29:29;15.30;99.90
52435;DHT22;38354;52.892;6.148;2023-06-14T03:32:00;15.20;99.90
52435;DHT22;38354;52.892;6.148;2023-06-14T03:34:26;15.20;99.90
52435;DHT22;38354;52.892;6.148;2023-06-14T03:36:52;15.20;99.90
52435;DHT22;38354;52.892;6.148;2023-06-14T03:39:18;15.10;99.90
52435;DHT22;38354;52.892;6.148;2023-06-14T03:41:44;15.10;99.90
52435;DHT22;38354;52.892;6.148;2023-06-14T03:44:10;15.20;99.90
52435;DHT22;38354;52.892;6.148;2023-06-14T03:46:36;15.20;99.90
52435;DHT22;38354;52.892;6.148;2023-06-14T03:49:01;15.10;99.90
52435;DHT22;38354;52.892;6.148;2023-06-14T03:51:28;15.10;99.90
52435;DHT22;38354;52.892;6.148;2023-06-14T03:53:54;15.20;99.90
52435;DHT22;38354;52.892;6.148;2023-06-14T03:56:21;15.20;99.90
52435;DHT22;38354;52.892;6.148;2023-06-14T03:58:47;15.20;99.90
52435;DHT22;38354;52.892;6.148;2023-06-14T04:01:12;15.10;99.90
52435;DHT22;38354;52.892;6.148;2023-06-14T04:03:38;15.20;99.90
52435;DHT22;38354;52.892;6.148;2023-06-14T04:06:05;15.10;99.90
52435;DHT22;38354;52.892;6.148;2023-06-14T04:08:32;15.20;99.90
52435;DHT22;38354;52.892;6.148;2023-06-14T04:10:57;15.20;99.90
52435;DHT22;38354;52.892;6.148;2023-06-14T04:13:23;15.20;99.90
52435;DHT22;38354;52.892;6.148;2023-06-14T04:15:49;15.20;99.90
52435;DHT22;38354;52.892;6.148;2023-06-14T04:18:14;15.20;99.90
52435;DHT22;38354;52.892;6.148;2023-06-14T04:20:40;15.20;99.90
52435;DHT22;38354;52.892;6.148;2023-06-14T04:23:16;15.20;99.90
52435;DHT22;38354;52.892;6.148;2023-06-14T04:25:47;15.30;99.90
52435;DHT22;38354;52.892;6.148;2023-06-14T04:28:16;15.30;99.90
52435;DHT22;38354;52.892;6.148;2023-06-14T04:30:43;15.30;99.90
52435;DHT22;38354;52.892;6.148;2023-06-14T04:33:08;15.30;99.90
52435;DHT22;38354;52.892;6.148;2023-06-14T04:35:35;15.30;99.90
52435;DHT22;38354;52.892;6.148;2023-06-14T04:38:03;15.30;99.90
52435;DHT22;38354;52.892;6.148;2023-06-14T04:40:35;15.30;99.90
52435;DHT22;38354;52.892;6.148;2023-06-14T04:43:08;15.30;99.90
52435;DHT22;38354;52.892;6.148;2023-06-14T04:45:34;15.40;99.90
52435;DHT22;38354;52.892;6.148;2023-06-14T04:47:59;15.40;99.90
52435;DHT22;38354;52.892;6.148;2023-06-14T04:50:25;15.40;99.90
52435;DHT22;38354;52.892;6.148;2023-06-14T04:52:52;15.40;99.90
52435;DHT22;38354;52.892;6.148;2023-06-14T04:55:19;15.40;99.90
52435;DHT22;38354;52.892;6.148;2023-06-14T04:57:45;15.40;99.90
52435;DHT22;38354;52.892;6.148;2023-06-14T05:00:11;15.50;99.90
52435;DHT22;38354;52.892;6.148;2023-06-14T05:02:37;15.50;99.90
52435;DHT22;38354;52.892;6.148;2023-06-14T05:05:04;15.50;99.90
52435;DHT22;38354;52.892;6.148;2023-06-14T05:07:33;15.60;99.90
52435;DHT22;38354;52.892;6.148;2023-06-14T05:09:59;15.60;99.90
52435;DHT22;38354;52.892;6.148;2023-06-14T05:12:25;15.60;99.90
52435;DHT22;38354;52.892;6.148;2023-06-14T05:14:51;15.60;99.90
52435;DHT22;38354;52.892;6.148;2023-06-14T05:17:17;15.70;99.90
52435;DHT22;38354;52.892;6.148;2023-06-14T05:19:43;15.70;99.90
52435;DHT22;38354;52.892;6.148;2023-06-14T05:22:08;15.70;99.90
52435;DHT22;38354;52.892;6.148;2023-06-14T05:24:34;15.70;99.90
52435;DHT22;38354;52.892;6.148;2023-06-14T05:27:00;15.70;99.90
52435;DHT22;38354;52.892;6.148;2023-06-14T05:29:26;15.80;99.90
52435;DHT22;38354;52.892;6.148;2023-06-14T05:31:53;15.80;99.90
52435;DHT22;38354;52.892;6.148;2023-06-14T05:34:18;15.80;99.90
52435;DHT22;38354;52.892;6.148;2023-06-14T05:36:44;15.80;99.90
52435;DHT22;38354;52.892;6.148;2023-06-14T05:39:10;15.90;99.90
52435;DHT22;38354;52.892;6.148;2023-06-14T05:41:36;15.90;99.90
52435;DHT22;38354;52.892;6.148;2023-06-14T05:44:01;15.90;99.90
52435;DHT22;38354;52.892;6.148;2023-06-14T05:46:27;16.00;99.90
52435;DHT22;38354;52.892;6.148;2023-06-14T05:48:54;16.00;99.90
52435;DHT22;38354;52.892;6.148;2023-06-14T05:51:20;16.00;99.90
52435;DHT22;38354;52.892;6.148;2023-06-14T05:53:47;16.10;99.90
52435;DHT22;38354;52.892;6.148;2023-06-14T05:56:13;16.10;99.90
52435;DHT22;38354;52.892;6.148;2023-06-14T05:58:39;16.20;99.90
52435;DHT22;38354;52.892;6.148;2023-06-14T06:01:05;16.20;99.90
52435;DHT22;38354;52.892;6.148;2023-06-14T06:03:31;16.30;99.90
52435;DHT22;38354;52.892;6.148;2023-06-14T06:05:58;16.30;99.90
52435;DHT22;38354;52.892;6.148;2023-06-14T06:08:23;16.30;99.90
52435;DHT22;38354;52.892;6.148;2023-06-14T06:10:49;16.40;99.90
52435;DHT22;38354;52.892;6.148;2023-06-14T06:13:15;16.50;99.90
52435;DHT22;38354;52.892;6.148;2023-06-14T06:15:41;16.60;99.90
52435;DHT22;38354;52.892;6.148;2023-06-14T06:18:07;16.60;99.90
52435;DHT22;38354;52.892;6.148;2023-06-14T06:20:32;16.70;99.90
52435;DHT22;38354;52.892;6.148;2023-06-14T06:22:58;16.80;99.90
52435;DHT22;38354;52.892;6.148;2023-06-14T06:25:25;16.90;99.90
52435;DHT22;38354;52.892;6.148;2023-06-14T06:27:52;17.00;99.90
52435;DHT22;38354;52.892;6.148;2023-06-14T06:30:19;17.10;99.90
52435;DHT22;38354;52.892;6.148;2023-06-14T06:32:45;17.20;99.90
52435;DHT22;38354;52.892;6.148;2023-06-14T06:35:11;17.20;99.90
52435;DHT22;38354;52.892;6.148;2023-06-14T06:37:38;17.30;99.90
52435;DHT22;38354;52.892;6.148;2023-06-14T06:40:04;17.40;99.90
52435;DHT22;38354;52.892;6.148;2023-06-14T06:42:31;17.50;99.90
52435;DHT22;38354;52.892;6.148;2023-06-14T06:44:57;17.50;99.90
52435;DHT22;38354;52.892;6.148;2023-06-14T06:47:23;17.60;99.90
52435;DHT22;38354;52.892;6.148;2023-06-14T06:49:49;17.70;99.90
52435;DHT22;38354;52.892;6.148;2023-06-14T06:52:14;17.80;99.90
52435;DHT22;38354;52.892;6.148;2023-06-14T06:54:40;17.90;99.90
52435;DHT22;38354;52.892;6.148;2023-06-14T06:57:06;18.00;99.90
52435;DHT22;38354;52.892;6.148;2023-06-14T06:59:33;18.00;99.90
52435;DHT22;38354;52.892;6.148;2023-06-14T07:01:59;18.10;99.90
52435;DHT22;38354;52.892;6.148;2023-06-14T07:04:24;18.20;99.90
52435;DHT22;38354;52.892;6.148;2023-06-14T07:06:50;18.30;99.90
52435;DHT22;38354;52.892;6.148;2023-06-14T07:09:16;18.30;99.90
52435;DHT22;38354;52.892;6.148;2023-06-14T07:11:46;18.40;99.90
52435;DHT22;38354;52.892;6.148;2023-06-14T07:14:12;18.50;99.90
52435;DHT22;38354;52.892;6.148;2023-06-14T07:16:38;18.60;99.90
52435;DHT22;38354;52.892;6.148;2023-06-14T07:19:04;18.70;99.90
52435;DHT22;38354;52.892;6.148;2023-06-14T07:21:30;18.70;99.90
52435;DHT22;38354;52.892;6.148;2023-06-14T07:23:56;18.80;99.90
52435;DHT22;38354;52.892;6.148;2023-06-14T07:26:22;18.90;99.90
52435;DHT22;38354;52.892;6.148;2023-06-14T07:28:48;19.00;99.90
52435;DHT22;38354;52.892;6.148;2023-06-14T07:31:15;19.10;99.90
52435;DHT22;38354;52.892;6.148;2023-06-14T07:33:41;19.20;99.90
52435;DHT22;38354;52.892;6.148;2023-06-14T07:36:08;19.30;99.90
52435;DHT22;38354;52.892;6.148;2023-06-14T07:38:33;19.40;99.90
52435;DHT22;38354;52.892;6.148;2023-06-14T07:41:00;19.50;99.90
52435;DHT22;38354;52.892;6.148;2023-06-14T07:43:26;19.60;99.90
52435;DHT22;38354;52.892;6.148;2023-06-14T07:45:51;19.70;99.90
52435;DHT22;38354;52.892;6.148;2023-06-14T07:48:18;19.80;99.90
52435;DHT22;38354;52.892;6.148;2023-06-14T07:50:43;19.90;99.90
52435;DHT22;38354;52.892;6.148;2023-06-14T07:53:09;20.00;99.90
52435;DHT22;38354;52.892;6.148;2023-06-14T07:55:35;20.00;99.90
52435;DHT22;38354;52.892;6.148;2023-06-14T07:58:06;20.10;99.90
52435;DHT22;38354;52.892;6.148;2023-06-14T08:00:32;20.10;99.90
52435;DHT22;38354;52.892;6.148;2023-06-14T08:02:58;20.20;99.90
52435;DHT22;38354;52.892;6.148;2023-06-14T08:05:28;20.30;99.90
52435;DHT22;38354;52.892;6.148;2023-06-14T08:07:54;20.40;99.90
52435;DHT22;38354;52.892;6.148;2023-06-14T08:10:21;20.50;99.90
52435;DHT22;38354;52.892;6.148;2023-06-14T08:12:46;20.60;99.90
52435;DHT22;38354;52.892;6.148;2023-06-14T08:15:13;20.70;99.90
52435;DHT22;38354;52.892;6.148;2023-06-14T08:17:39;20.80;99.90
52435;DHT22;38354;52.892;6.148;2023-06-14T08:20:06;20.90;99.90
52435;DHT22;38354;52.892;6.148;2023-06-14T08:22:32;21.00;99.90
52435;DHT22;38354;52.892;6.148;2023-06-14T08:25:01;21.10;99.90
52435;DHT22;38354;52.892;6.148;2023-06-14T08:27:27;21.20;99.90
52435;DHT22;38354;52.892;6.148;2023-06-14T08:29:53;21.20;99.90
52435;DHT22;38354;52.892;6.148;2023-06-14T08:32:19;21.30;99.90
52435;DHT22;38354;52.892;6.148;2023-06-14T08:34:44;21.40;99.90
52435;DHT22;38354;52.892;6.148;2023-06-14T08:37:10;21.50;99.90
52435;DHT22;38354;52.892;6.148;2023-06-14T08:39:36;21.60;99.90
52435;DHT22;38354;52.892;6.148;2023-06-14T08:42:03;21.70;99.90
52435;DHT22;38354;52.892;6.148;2023-06-14T08:44:32;21.80;99.90
52435;DHT22;38354;52.892;6.148;2023-06-14T08:46:59;21.90;99.90
52435;DHT22;38354;52.892;6.148;2023-06-14T08:49:25;22.00;99.70
52435;DHT22;38354;52.892;6.148;2023-06-14T08:51:59;22.10;99.60
52435;DHT22;38354;52.892;6.148;2023-06-14T08:54:29;22.20;99.30
52435;DHT22;38354;52.892;6.148;2023-06-14T08:57:02;22.30;98.60
52435;DHT22;38354;52.892;6.148;2023-06-14T08:59:28;22.40;98.30
52435;DHT22;38354;52.892;6.148;2023-06-14T09:01:54;22.50;98.30
52435;DHT22;38354;52.892;6.148;2023-06-14T09:04:23;22.60;97.80
52435;DHT22;38354;52.892;6.148;2023-06-14T09:06:55;22.70;97.60
52435;DHT22;38354;52.892;6.148;2023-06-14T09:09:21;22.80;97.40
52435;DHT22;38354;52.892;6.148;2023-06-14T09:11:49;22.90;96.80
52435;DHT22;38354;52.892;6.148;2023-06-14T09:14:15;23.00;96.60
52435;DHT22;38354;52.892;6.148;2023-06-14T09:16:41;23.10;96.00
52435;DHT22;38354;52.892;6.148;2023-06-14T09:19:06;23.20;95.40
52435;DHT22;38354;52.892;6.148;2023-06-14T09:21:34;23.30;95.30
52435;DHT22;38354;52.892;6.148;2023-06-14T09:24:01;23.40;95.20
52435;DHT22;38354;52.892;6.148;2023-06-14T09:26:28;23.50;94.70
52435;DHT22;38354;52.892;6.148;2023-06-14T09:28:53;23.60;93.90
52435;DHT22;38354;52.892;6.148;2023-06-14T09:31:21;23.70;93.70
52435;DHT22;38354;52.892;6.148;2023-06-14T09:33:50;23.80;93.50
52435;DHT22;38354;52.892;6.148;2023-06-14T09:36:18;23.90;92.70
52435;DHT22;38354;52.892;6.148;2023-06-14T09:41:36;24.00;92.60
52435;DHT22;38354;52.892;6.148;2023-06-14T09:44:07;24.10;92.50
52435;DHT22;38354;52.892;6.148;2023-06-14T09:46:33;24.30;92.00
52435;DHT22;38354;52.892;6.148;2023-06-14T09:49:01;24.40;91.30
52435;DHT22;38354;52.892;6.148;2023-06-14T09:51:28;24.50;90.70
52435;DHT22;38354;52.892;6.148;2023-06-14T09:53:59;24.50;90.50
52435;DHT22;38354;52.892;6.148;2023-06-14T09:56:36;24.60;90.30
52435;DHT22;38354;52.892;6.148;2023-06-14T09:59:05;24.70;89.70
52435;DHT22;38354;52.892;6.148;2023-06-14T10:01:33;24.80;88.80
52435;DHT22;38354;52.892;6.148;2023-06-14T10:04:07;24.80;87.80
52435;DHT22;38354;52.892;6.148;2023-06-14T10:06:36;24.90;87.20
52435;DHT22;38354;52.892;6.148;2023-06-14T10:09:03;25.00;87.20
52435;DHT22;38354;52.892;6.148;2023-06-14T10:11:29;25.10;86.60
52435;DHT22;38354;52.892;6.148;2023-06-14T10:13:56;25.20;86.20
52435;DHT22;38354;52.892;6.148;2023-06-14T10:24:33;25.50;85.30
52435;DHT22;38354;52.892;6.148;2023-06-14T10:27:01;25.60;84.30
52435;DHT22;38354;52.892;6.148;2023-06-14T10:29:30;25.70;84.50
52435;DHT22;38354;52.892;6.148;2023-06-14T10:31:59;25.80;83.80
52435;DHT22;38354;52.892;6.148;2023-06-14T10:34:29;25.70;83.10
52435;DHT22;38354;52.892;6.148;2023-06-14T10:37:21;25.80;82.80
52435;DHT22;38354;52.892;6.148;2023-06-14T10:39:46;25.90;83.00
52435;DHT22;38354;52.892;6.148;2023-06-14T10:42:12;26.00;82.40
52435;DHT22;38354;52.892;6.148;2023-06-14T10:44:40;26.10;81.40
52435;DHT22;38354;52.892;6.148;2023-06-14T10:52:32;26.20;77.40
52435;DHT22;38354;52.892;6.148;2023-06-14T10:57:31;26.30;77.30
52435;DHT22;38354;52.892;6.148;2023-06-14T11:00:02;26.40;76.90
52435;DHT22;38354;52.892;6.148;2023-06-14T11:05:26;26.60;75.10
52435;DHT22;38354;52.892;6.148;2023-06-14T11:10:41;26.70;73.00
52435;DHT22;38354;52.892;6.148;2023-06-14T11:13:08;26.70;71.60
52435;DHT22;38354;52.892;6.148;2023-06-14T11:15:38;26.70;71.60
52435;DHT22;38354;52.892;6.148;2023-06-14T11:18:07;26.70;72.00
52435;DHT22;38354;52.892;6.148;2023-06-14T11:20:36;26.90;72.30
52435;DHT22;38354;52.892;6.148;2023-06-14T11:23:02;26.90;72.20
52435;DHT22;38354;52.892;6.148;2023-06-14T11:25:28;26.90;71.70
52435;DHT22;38354;52.892;6.148;2023-06-14T11:27:54;27.00;72.80
52435;DHT22;38354;52.892;6.148;2023-06-14T11:30:21;27.10;71.80
52435;DHT22;38354;52.892;6.148;2023-06-14T11:32:47;27.20;71.60
52435;DHT22;38354;52.892;6.148;2023-06-14T11:35:13;27.30;71.00
52435;DHT22;38354;52.892;6.148;2023-06-14T11:37:39;27.30;70.60
52435;DHT22;38354;52.892;6.148;2023-06-14T11:40:08;27.20;68.80
52435;DHT22;38354;52.892;6.148;2023-06-14T11:42:36;27.30;69.00
52435;DHT22;38354;52.892;6.148;2023-06-14T11:45:02;27.40;69.10
52435;DHT22;38354;52.892;6.148;2023-06-14T11:47:35;27.50;68.90
52435;DHT22;38354;52.892;6.148;2023-06-14T11:50:02;27.50;68.30
52435;DHT22;38354;52.892;6.148;2023-06-14T11:52:28;27.50;67.90
52435;DHT22;38354;52.892;6.148;2023-06-14T11:54:54;27.50;68.20
52435;DHT22;38354;52.892;6.148;2023-06-14T11:57:20;27.50;67.60
52435;DHT22;38354;52.892;6.148;2023-06-14T11:59:46;27.60;67.30
52435;DHT22;38354;52.892;6.148;2023-06-14T12:02:19;27.60;67.00
52435;DHT22;38354;52.892;6.148;2023-06-14T12:04:48;27.60;67.00
52435;DHT22;38354;52.892;6.148;2023-06-14T12:07:15;27.70;66.70
52435;DHT22;38354;52.892;6.148;2023-06-14T12:12:17;27.70;66.50
52435;DHT22;38354;52.892;6.148;2023-06-14T12:14:43;27.80;66.70
52435;DHT22;38354;52.892;6.148;2023-06-14T12:17:09;27.80;66.10
52435;DHT22;38354;52.892;6.148;2023-06-14T12:19:45;27.90;65.90
52435;DHT22;38354;52.892;6.148;2023-06-14T12:22:11;27.90;65.40
52435;DHT22;38354;52.892;6.148;2023-06-14T12:24:37;27.80;64.60
52435;DHT22;38354;52.892;6.148;2023-06-14T12:27:05;27.80;65.20
52435;DHT22;38354;52.892;6.148;2023-06-14T12:29:31;27.90;65.30
52435;DHT22;38354;52.892;6.148;2023-06-14T12:31:57;27.80;64.60
52435;DHT22;38354;52.892;6.148;2023-06-14T12:34:24;27.80;64.60
52435;DHT22;38354;52.892;6.148;2023-06-14T12:36:50;27.80;64.00
52435;DHT22;38354;52.892;6.148;2023-06-14T12:39:16;27.70;64.10
52435;DHT22;38354;52.892;6.148;2023-06-14T12:41:42;27.80;65.30
52435;DHT22;38354;52.892;6.148;2023-06-14T12:44:08;27.90;64.90
52435;DHT22;38354;52.892;6.148;2023-06-14T12:46:34;27.90;64.90
52435;DHT22;38354;52.892;6.148;2023-06-14T12:49:00;28.00;64.90
52435;DHT22;38354;52.892;6.148;2023-06-14T12:51:26;28.10;65.20
52435;DHT22;38354;52.892;6.148;2023-06-14T12:53:52;28.20;65.60
52435;DHT22;38354;52.892;6.148;2023-06-14T12:56:18;28.30;65.40
52435;DHT22;38354;52.892;6.148;2023-06-14T12:58:43;28.20;63.80
52435;DHT22;38354;52.892;6.148;2023-06-14T13:01:09;28.20;64.00
52435;DHT22;38354;52.892;6.148;2023-06-14T13:03:35;28.20;64.50
52435;DHT22;38354;52.892;6.148;2023-06-14T13:06:01;28.20;64.10
52435;DHT22;38354;52.892;6.148;2023-06-14T13:08:28;28.10;63.90
52435;DHT22;38354;52.892;6.148;2023-06-14T13:10:54;27.80;63.30
52435;DHT22;38354;52.892;6.148;2023-06-14T13:13:19;27.70;64.00
52435;DHT22;38354;52.892;6.148;2023-06-14T13:15:45;27.80;64.50
52435;DHT22;38354;52.892;6.148;2023-06-14T13:18:12;27.80;64.10
52435;DHT22;38354;52.892;6.148;2023-06-14T13:20:40;28.00;64.10
52435;DHT22;38354;52.892;6.148;2023-06-14T13:23:06;28.10;63.90
52435;DHT22;38354;52.892;6.148;2023-06-14T13:25:39;28.00;62.40
52435;DHT22;38354;52.892;6.148;2023-06-14T13:28:05;28.00;63.50
52435;DHT22;38354;52.892;6.148;2023-06-14T13:30:31;28.00;63.60
52435;DHT22;38354;52.892;6.148;2023-06-14T13:32:58;27.90;63.70
52435;DHT22;38354;52.892;6.148;2023-06-14T13:35:24;27.90;63.70
52435;DHT22;38354;52.892;6.148;2023-06-14T13:37:50;28.00;63.60
52435;DHT22;38354;52.892;6.148;2023-06-14T13:40:16;28.10;64.00
52435;DHT22;38354;52.892;6.148;2023-06-14T13:42:42;28.30;64.50
52435;DHT22;38354;52.892;6.148;2023-06-14T13:45:09;28.30;64.50
52435;DHT22;38354;52.892;6.148;2023-06-14T13:47:35;28.30;63.90
52435;DHT22;38354;52.892;6.148;2023-06-14T13:50:01;28.20;63.20
52435;DHT22;38354;52.892;6.148;2023-06-14T13:52:28;28.10;62.30
52435;DHT22;38354;52.892;6.148;2023-06-14T13:54:54;28.00;61.50
52435;DHT22;38354;52.892;6.148;2023-06-14T13:57:19;27.90;61.80
52435;DHT22;38354;52.892;6.148;2023-06-14T13:59:45;27.90;62.70
52435;DHT22;38354;52.892;6.148;2023-06-14T14:02:11;27.80;62.80
52435;DHT22;38354;52.892;6.148;2023-06-14T14:04:37;27.80;62.30
52435;DHT22;38354;52.892;6.148;2023-06-14T14:07:04;27.80;62.70
52435;DHT22;38354;52.892;6.148;2023-06-14T14:09:31;27.80;63.10
52435;DHT22;38354;52.892;6.148;2023-06-14T14:11:58;27.70;62.80
52435;DHT22;38354;52.892;6.148;2023-06-14T14:14:24;27.60;62.30
52435;DHT22;38354;52.892;6.148;2023-06-14T14:16:50;27.70;62.70
52435;DHT22;38354;52.892;6.148;2023-06-14T14:19:17;27.80;63.20
52435;DHT22;38354;52.892;6.148;2023-06-14T14:21:44;27.90;63.10
52435;DHT22;38354;52.892;6.148;2023-06-14T14:24:10;27.80;62.60
52435;DHT22;38354;52.892;6.148;2023-06-14T14:26:36;27.80;62.40
52435;DHT22;38354;52.892;6.148;2023-06-14T14:29:02;27.90;62.80
52435;DHT22;38354;52.892;6.148;2023-06-14T14:31:28;27.90;62.00
52435;DHT22;38354;52.892;6.148;2023-06-14T14:33:54;27.90;61.70
52435;DHT22;38354;52.892;6.148;2023-06-14T14:36:20;27.80;61.80
52435;DHT22;38354;52.892;6.148;2023-06-14T14:38:45;27.70;61.20
52435;DHT22;38354;52.892;6.148;2023-06-14T14:41:12;27.70;61.40
52435;DHT22;38354;52.892;6.148;2023-06-14T14:43:38;27.80;61.40
52435;DHT22;38354;52.892;6.148;2023-06-14T14:46:04;27.80;62.00
52435;DHT22;38354;52.892;6.148;2023-06-14T14:48:30;27.80;61.50
52435;DHT22;38354;52.892;6.148;2023-06-14T14:50:55;27.90;62.00
52435;DHT22;38354;52.892;6.148;2023-06-14T14:53:21;27.90;61.10
52435;DHT22;38354;52.892;6.148;2023-06-14T14:55:47;27.80;61.20
52435;DHT22;38354;52.892;6.148;2023-06-14T14:58:13;27.80;61.10
52435;DHT22;38354;52.892;6.148;2023-06-14T15:00:42;27.90;61.70
52435;DHT22;38354;52.892;6.148;2023-06-14T15:03:08;27.90;61.30
52435;DHT22;38354;52.892;6.148;2023-06-14T15:05:33;27.90;61.30
52435;DHT22;38354;52.892;6.148;2023-06-14T15:07:59;28.00;61.70
52435;DHT22;38354;52.892;6.148;2023-06-14T15:10:25;28.10;62.10
52435;DHT22;38354;52.892;6.148;2023-06-14T15:12:50;28.10;61.40
52435;DHT22;38354;52.892;6.148;2023-06-14T15:15:16;28.10;61.30
52435;DHT22;38354;52.892;6.148;2023-06-14T15:17:42;28.10;61.30
52435;DHT22;38354;52.892;6.148;2023-06-14T15:20:07;27.90;60.90
52435;DHT22;38354;52.892;6.148;2023-06-14T15:22:33;27.70;60.70
52435;DHT22;38354;52.892;6.148;2023-06-14T15:24:59;27.70;60.90
52435;DHT22;38354;52.892;6.148;2023-06-14T15:27:25;27.70;60.50
52435;DHT22;38354;52.892;6.148;2023-06-14T15:29:51;27.70;60.70
52435;DHT22;38354;52.892;6.148;2023-06-14T15:32:16;27.80;61.00
52435;DHT22;38354;52.892;6.148;2023-06-14T15:34:42;27.90;61.80
52435;DHT22;38354;52.892;6.148;2023-06-14T15:37:08;28.00;61.50
52435;DHT22;38354;52.892;6.148;2023-06-14T15:39:34;27.90;60.80
52435;DHT22;38354;52.892;6.148;2023-06-14T15:42:00;27.60;60.70
52435;DHT22;38354;52.892;6.148;2023-06-14T15:44:26;27.30;60.60
52435;DHT22;38354;52.892;6.148;2023-06-14T15:46:51;27.30;61.10
52435;DHT22;38354;52.892;6.148;2023-06-14T15:49:17;27.30;61.10
52435;DHT22;38354;52.892;6.148;2023-06-14T15:51:44;27.50;61.70
52435;DHT22;38354;52.892;6.148;2023-06-14T15:54:10;27.60;61.80
52435;DHT22;38354;52.892;6.148;2023-06-14T15:56:36;27.60;61.20
52435;DHT22;38354;52.892;6.148;2023-06-14T15:59:01;27.70;61.00
52435;DHT22;38354;52.892;6.148;2023-06-14T16:01:28;27.70;61.10
52435;DHT22;38354;52.892;6.148;2023-06-14T16:03:53;27.80;61.00
52435;DHT22;38354;52.892;6.148;2023-06-14T16:06:21;27.80;60.60
52435;DHT22;38354;52.892;6.148;2023-06-14T16:08:47;27.80;60.70
52435;DHT22;38354;52.892;6.148;2023-06-14T16:11:13;27.80;60.00
52435;DHT22;38354;52.892;6.148;2023-06-14T16:13:41;27.70;59.40
52435;DHT22;38354;52.892;6.148;2023-06-14T16:16:07;27.60;59.00
52435;DHT22;38354;52.892;6.148;2023-06-14T16:18:33;27.50;59.50
52435;DHT22;38354;52.892;6.148;2023-06-14T16:20:59;27.50;60.00
52435;DHT22;38354;52.892;6.148;2023-06-14T16:23:25;27.60;60.90
52435;DHT22;38354;52.892;6.148;2023-06-14T16:25:51;27.50;60.90
52435;DHT22;38354;52.892;6.148;2023-06-14T16:28:16;27.30;60.80
52435;DHT22;38354;52.892;6.148;2023-06-14T16:30:42;27.00;61.10
52435;DHT22;38354;52.892;6.148;2023-06-14T16:33:08;26.90;61.50
52435;DHT22;38354;52.892;6.148;2023-06-14T16:35:33;26.90;61.50
52435;DHT22;38354;52.892;6.148;2023-06-14T16:37:59;26.90;61.50
52435;DHT22;38354;52.892;6.148;2023-06-14T16:40:25;27.10;61.70
52435;DHT22;38354;52.892;6.148;2023-06-14T16:42:51;27.20;62.00
52435;DHT22;38354;52.892;6.148;2023-06-14T16:45:17;27.30;61.80
52435;DHT22;38354;52.892;6.148;2023-06-14T16:47:42;27.20;61.80
52435;DHT22;38354;52.892;6.148;2023-06-14T16:50:08;27.10;62.00
52435;DHT22;38354;52.892;6.148;2023-06-14T16:52:34;26.80;61.80
52435;DHT22;38354;52.892;6.148;2023-06-14T16:55:00;26.60;61.90
52435;DHT22;38354;52.892;6.148;2023-06-14T16:57:25;26.40;62.50
52435;DHT22;38354;52.892;6.148;2023-06-14T16:59:51;26.20;62.20
52435;DHT22;38354;52.892;6.148;2023-06-14T17:02:17;26.20;62.30
52435;DHT22;38354;52.892;6.148;2023-06-14T17:04:42;26.20;62.30
52435;DHT22;38354;52.892;6.148;2023-06-14T17:07:08;26.00;63.20
52435;DHT22;38354;52.892;6.148;2023-06-14T17:09:34;25.80;63.70
52435;DHT22;38354;52.892;6.148;2023-06-14T17:12:00;25.70;63.50
52435;DHT22;38354;52.892;6.148;2023-06-14T17:14:27;25.50;63.80
52435;DHT22;38354;52.892;6.148;2023-06-14T17:16:52;25.50;63.90
52435;DHT22;38354;52.892;6.148;2023-06-14T17:19:18;25.50;65.00
52435;DHT22;38354;52.892;6.148;2023-06-14T17:21:44;25.70;65.00
52435;DHT22;38354;52.892;6.148;2023-06-14T17:24:14;25.80;64.70
52435;DHT22;38354;52.892;6.148;2023-06-14T17:26:40;25.90;64.60
52435;DHT22;38354;52.892;6.148;2023-06-14T17:29:05;26.00;65.20
52435;DHT22;38354;52.892;6.148;2023-06-14T17:31:31;26.10;64.70
52435;DHT22;38354;52.892;6.148;2023-06-14T17:33:57;26.10;64.20
52435;DHT22;38354;52.892;6.148;2023-06-14T17:36:22;25.90;64.00
52435;DHT22;38354;52.892;6.148;2023-06-14T17:38:48;25.80;63.20
52435;DHT22;38354;52.892;6.148;2023-06-14T17:41:17;25.70;63.40
52435;DHT22;38354;52.892;6.148;2023-06-14T17:43:43;25.70;63.40
52435;DHT22;38354;52.892;6.148;2023-06-14T17:46:09;25.60;63.40
52435;DHT22;38354;52.892;6.148;2023-06-14T17:48:35;25.50;63.40
52435;DHT22;38354;52.892;6.148;2023-06-14T17:51:02;25.30;63.50
52435;DHT22;38354;52.892;6.148;2023-06-14T17:53:28;25.20;63.80
52435;DHT22;38354;52.892;6.148;2023-06-14T17:55:53;25.10;64.20
52435;DHT22;38354;52.892;6.148;2023-06-14T17:58:19;24.90;64.80
52435;DHT22;38354;52.892;6.148;2023-06-14T18:00:49;24.80;64.40
52435;DHT22;38354;52.892;6.148;2023-06-14T18:03:16;24.70;64.80
52435;DHT22;38354;52.892;6.148;2023-06-14T18:05:42;24.60;65.40
52435;DHT22;38354;52.892;6.148;2023-06-14T18:08:09;24.70;66.10
52435;DHT22;38354;52.892;6.148;2023-06-14T18:10:36;24.70;65.90
52435;DHT22;38354;52.892;6.148;2023-06-14T18:13:02;24.80;66.30
52435;DHT22;38354;52.892;6.148;2023-06-14T18:15:28;24.80;66.70
52435;DHT22;38354;52.892;6.148;2023-06-14T18:17:54;24.90;66.40
52435;DHT22;38354;52.892;6.148;2023-06-14T18:20:21;24.90;66.80
52435;DHT22;38354;52.892;6.148;2023-06-14T18:22:47;24.90;67.10
52435;DHT22;38354;52.892;6.148;2023-06-14T18:25:15;24.90;67.00
52435;DHT22;38354;52.892;6.148;2023-06-14T18:27:41;24.80;66.40
52435;DHT22;38354;52.892;6.148;2023-06-14T18:30:08;24.80;66.20
52435;DHT22;38354;52.892;6.148;2023-06-14T18:32:34;24.70;66.90
52435;DHT22;38354;52.892;6.148;2023-06-14T18:35:01;24.70;68.50
52435;DHT22;38354;52.892;6.148;2023-06-14T18:37:27;24.60;71.10
52435;DHT22;38354;52.892;6.148;2023-06-14T18:39:53;24.50;73.20
52435;DHT22;38354;52.892;6.148;2023-06-14T18:42:19;24.40;74.80
52435;DHT22;38354;52.892;6.148;2023-06-14T18:44:46;24.20;76.10
52435;DHT22;38354;52.892;6.148;2023-06-14T18:47:12;24.10;77.10
52435;DHT22;38354;52.892;6.148;2023-06-14T18:49:38;24.00;77.90
52435;DHT22;38354;52.892;6.148;2023-06-14T18:52:04;23.90;78.70
52435;DHT22;38354;52.892;6.148;2023-06-14T18:54:30;23.80;79.30